createdAt,value
2023-11-18T00:00:14.011Z,89.13
2023-11-18T00:02:44.572Z,89.12
2023-11-18T00:05:12.522Z,88.96
2023-11-18T00:07:40.194Z,88.41
2023-11-18T00:10:09.930Z,87.90
2023-11-18T00:12:38.104Z,87.90
2023-11-18T00:15:06.600Z,87.65
2023-11-18T00:17:34.806Z,87.44
2023-11-18T00:20:10.115Z,87.97
2023-11-18T00:22:37.711Z,87.98
2023-11-18T00:25:23.812Z,87.64
2023-11-18T00:27:51.498Z,87.88
2023-11-18T00:30:19.218Z,87.78
2023-11-18T00:32:46.886Z,87.88
2023-11-18T00:35:14.465Z,87.91
2023-11-18T00:37:42.034Z,87.34
2023-11-18T00:40:10.864Z,87.36
2023-11-18T00:42:41.503Z,87.16
2023-11-18T00:45:09.377Z,87.06
2023-11-18T00:47:37.090Z,87.09
2023-11-18T00:50:05.292Z,87.41
2023-11-18T00:52:32.820Z,87.52
2023-11-18T00:55:00.445Z,87.45
2023-11-18T00:57:28.569Z,87.50
2023-11-18T00:59:56.136Z,87.42
2023-11-18T01:02:23.870Z,87.52
2023-11-18T01:04:51.676Z,87.28
2023-11-18T01:07:19.232Z,87.81
2023-11-18T01:09:46.893Z,87.09
2023-11-18T01:12:14.622Z,86.80
2023-11-18T01:14:43.273Z,86.70
2023-11-18T01:17:11.004Z,86.87
2023-11-18T01:19:39.295Z,87.01
2023-11-18T01:22:07.426Z,87.34
2023-11-18T01:24:35.405Z,87.25
2023-11-18T01:27:03.166Z,87.44
2023-11-18T01:29:30.679Z,86.72
2023-11-18T01:31:58.481Z,86.38
2023-11-18T01:34:27.031Z,86.82
2023-11-18T01:36:54.700Z,87.35
2023-11-18T01:39:22.617Z,87.48
2023-11-18T01:41:51.230Z,87.27
2023-11-18T01:44:21.038Z,86.71
2023-11-18T01:46:49.158Z,86.58
2023-11-18T01:49:16.846Z,86.79
2023-11-18T01:51:44.318Z,86.62
2023-11-18T01:54:16.831Z,86.41
2023-11-18T01:56:45.459Z,85.92
2023-11-18T01:59:19.333Z,85.84
2023-11-18T02:01:54.881Z,85.79
2023-11-18T02:04:23.187Z,85.75
2023-11-18T02:06:51.243Z,85.69
2023-11-18T02:09:19.939Z,85.82
2023-11-18T02:11:55.611Z,85.87
2023-11-18T02:14:23.560Z,86.20
2023-11-18T02:16:51.293Z,86.36
2023-11-18T02:19:23.320Z,86.34
2023-11-18T02:21:51.179Z,86.58
2023-11-18T02:24:29.355Z,86.35
2023-11-18T02:26:58.643Z,86.76
2023-11-18T02:29:27.549Z,86.45
2023-11-18T02:31:59.930Z,86.55
2023-11-18T02:34:29.862Z,86.65
2023-11-18T02:37:02.109Z,86.39
2023-11-18T02:39:40.754Z,87.12
2023-11-18T02:42:09.365Z,87.20
2023-11-18T02:44:37.641Z,87.69
2023-11-18T02:47:08.464Z,88.10
2023-11-18T02:49:36.302Z,88.01
2023-11-18T02:52:04.153Z,87.93
2023-11-18T02:54:31.720Z,87.72
2023-11-18T02:57:00.246Z,87.21
2023-11-18T02:59:31.449Z,87.11
2023-11-18T03:01:58.970Z,87.87
2023-11-18T03:04:26.531Z,87.50
2023-11-18T03:06:54.027Z,87.56
2023-11-18T03:09:22.416Z,87.78
2023-11-18T03:11:52.622Z,87.75
2023-11-18T03:14:20.715Z,87.45
2023-11-18T03:16:49.148Z,88.35
2023-11-18T03:19:16.881Z,88.00
2023-11-18T03:21:44.650Z,88.16
2023-11-18T03:24:12.106Z,89.04
2023-11-18T03:26:39.855Z,89.57
2023-11-18T03:29:07.340Z,88.98
2023-11-18T03:31:34.952Z,88.77
2023-11-18T03:34:02.543Z,88.27
2023-11-18T03:36:30.100Z,88.54
2023-11-18T03:38:57.609Z,88.61
2023-11-18T03:41:25.356Z,88.65
2023-11-18T03:43:52.958Z,88.97
2023-11-18T03:46:20.455Z,88.57
2023-11-18T03:48:47.994Z,88.03
2023-11-18T03:51:18.082Z,88.20
2023-11-18T03:53:46.812Z,88.19
2023-11-18T03:56:19.814Z,87.85
2023-11-18T03:58:50.720Z,87.68
2023-11-18T04:01:28.878Z,87.36
2023-11-18T04:03:56.753Z,87.23
2023-11-18T04:06:25.912Z,86.99
2023-11-18T04:08:53.735Z,86.77
2023-11-18T04:11:21.224Z,87.20
2023-11-18T04:13:48.887Z,87.40
2023-11-18T04:16:17.080Z,87.31
2023-11-18T04:18:45.313Z,87.25
2023-11-18T04:21:14.315Z,87.17
2023-11-18T04:23:43.282Z,87.05
2023-11-18T04:26:10.901Z,86.88
2023-11-18T04:28:38.541Z,86.69
2023-11-18T04:31:06.716Z,86.52
2023-11-18T04:33:34.684Z,86.51
2023-11-18T04:36:02.687Z,86.41
2023-11-18T04:38:31.149Z,86.54
2023-11-18T04:40:58.792Z,86.20
2023-11-18T04:43:34.891Z,86.09
2023-11-18T04:46:10.171Z,86.12
2023-11-18T04:48:41.586Z,86.29
2023-11-18T04:51:10.273Z,86.63
2023-11-18T04:53:37.817Z,86.65
2023-11-18T04:56:05.849Z,86.66
2023-11-18T04:58:33.480Z,86.54
2023-11-18T05:01:01.132Z,87.04
2023-11-18T05:03:28.838Z,87.14
2023-11-18T05:05:58.382Z,87.31
2023-11-18T05:08:27.083Z,87.51
2023-11-18T05:10:55.876Z,87.63
2023-11-18T05:13:23.552Z,87.88
2023-11-18T05:15:51.421Z,87.70
2023-11-18T05:18:19.224Z,87.73
2023-11-18T05:20:47.777Z,87.72
2023-11-18T05:23:15.395Z,87.65
2023-11-18T05:25:46.170Z,87.57
2023-11-18T05:28:13.705Z,87.01
2023-11-18T05:30:42.726Z,86.94
2023-11-18T05:33:12.010Z,86.83
2023-11-18T05:35:39.503Z,86.36
2023-11-18T05:38:07.585Z,86.97
2023-11-18T05:40:40.171Z,86.47
2023-11-18T05:43:17.270Z,86.51
2023-11-18T05:46:04.989Z,85.93
2023-11-18T05:48:33.370Z,85.97
2023-11-18T05:51:00.853Z,86.19
2023-11-18T05:53:34.272Z,86.11
2023-11-18T05:56:02.349Z,86.01
2023-11-18T05:58:29.875Z,85.75
2023-11-18T06:00:57.300Z,85.86
2023-11-18T06:03:25.025Z,85.92
2023-11-18T06:05:53.190Z,86.05
2023-11-18T06:08:21.716Z,85.98
2023-11-18T06:10:50.277Z,85.75
2023-11-18T06:13:18.007Z,85.40
2023-11-18T06:15:45.492Z,85.27
2023-11-18T06:18:13.474Z,85.01
2023-11-18T06:20:41.038Z,84.97
2023-11-18T06:23:08.573Z,85.20
2023-11-18T06:25:36.947Z,84.91
2023-11-18T06:28:05.205Z,85.11
2023-11-18T06:30:32.716Z,85.13
2023-11-18T06:33:00.344Z,84.81
2023-11-18T06:35:28.284Z,84.50
2023-11-18T06:37:55.928Z,84.61
2023-11-18T06:40:26.419Z,84.62
2023-11-18T06:42:55.734Z,84.79
2023-11-18T06:45:23.332Z,84.53
2023-11-18T06:47:51.913Z,84.50
2023-11-18T06:50:25.750Z,83.88
2023-11-18T06:52:53.673Z,84.58
2023-11-18T06:55:21.330Z,84.24
2023-11-18T06:57:49.039Z,84.37
2023-11-18T07:00:16.927Z,83.93
2023-11-18T07:02:45.006Z,83.63
2023-11-18T07:05:13.649Z,83.82
2023-11-18T07:07:44.745Z,83.74
2023-11-18T07:10:14.914Z,83.35
2023-11-18T07:12:42.483Z,83.30
2023-11-18T07:15:12.051Z,83.46
2023-11-18T07:17:39.592Z,83.21
2023-11-18T07:20:07.982Z,83.31
2023-11-18T07:22:35.979Z,83.48
2023-11-18T07:25:04.187Z,83.48
2023-11-18T07:27:36.213Z,83.14
2023-11-18T07:30:07.677Z,83.23
2023-11-18T07:32:35.552Z,83.12
2023-11-18T07:35:03.155Z,83.12
2023-11-18T07:37:34.116Z,83.14
2023-11-18T07:40:02.034Z,83.18
2023-11-18T07:42:29.696Z,83.02
2023-11-18T07:44:58.397Z,82.90
2023-11-18T07:47:25.918Z,82.77
2023-11-18T07:49:57.867Z,82.57
2023-11-18T07:52:29.161Z,82.64
2023-11-18T07:54:56.722Z,82.29
2023-11-18T07:57:25.162Z,82.11
2023-11-18T07:59:54.483Z,82.19
2023-11-18T08:02:22.137Z,81.98
2023-11-18T08:04:49.923Z,82.19
2023-11-18T08:07:17.481Z,82.22
2023-11-18T08:09:45.154Z,81.98
2023-11-18T08:12:12.799Z,82.54
2023-11-18T08:14:40.356Z,82.22
2023-11-18T08:17:07.893Z,81.98
2023-11-18T08:19:35.579Z,82.13
2023-11-18T08:22:05.115Z,82.38
2023-11-18T08:24:35.313Z,82.23
2023-11-18T08:27:04.834Z,82.09
2023-11-18T08:29:34.379Z,81.82
2023-11-18T08:32:03.068Z,82.08
2023-11-18T08:34:31.642Z,81.78
2023-11-18T08:36:59.916Z,81.93
2023-11-18T08:39:30.386Z,81.66
2023-11-18T08:41:58.037Z,81.65
2023-11-18T08:44:25.887Z,81.39
2023-11-18T08:46:53.666Z,81.30
2023-11-18T08:49:24.158Z,81.03
2023-11-18T08:51:57.956Z,82.16
2023-11-18T08:54:37.956Z,81.78
2023-11-18T08:57:20.914Z,81.79
2023-11-18T08:59:48.534Z,81.43
2023-11-18T09:02:16.593Z,81.25
2023-11-18T09:04:44.538Z,80.93
2023-11-18T09:07:12.038Z,80.70
2023-11-18T09:09:41.162Z,80.86
2023-11-18T09:12:09.810Z,80.83
2023-11-18T09:14:37.530Z,80.84
2023-11-18T09:17:08.124Z,80.93
2023-11-18T09:19:37.164Z,81.03
2023-11-18T09:22:06.666Z,80.88
2023-11-18T09:24:35.548Z,81.28
2023-11-18T09:27:04.462Z,81.02
2023-11-18T09:29:32.100Z,80.80
2023-11-18T09:32:00.089Z,80.55
2023-11-18T09:34:34.769Z,80.70
2023-11-18T09:37:02.497Z,80.94
2023-11-18T09:39:39.408Z,80.59
2023-11-18T09:42:10.166Z,80.57
2023-11-18T09:44:39.375Z,80.57
2023-11-18T09:47:11.263Z,80.64
2023-11-18T09:49:47.159Z,80.79
2023-11-18T09:52:19.101Z,80.86
2023-11-18T09:55:04.425Z,80.55
2023-11-18T09:57:42.599Z,81.17
2023-11-18T10:00:22.097Z,81.01
2023-11-18T10:02:52.754Z,81.26
2023-11-18T10:05:24.213Z,81.25
2023-11-18T10:07:52.584Z,81.24
2023-11-18T10:10:22.424Z,81.19
2023-11-18T10:12:54.537Z,81.23
2023-11-18T10:15:24.954Z,80.87
2023-11-18T10:17:58.781Z,80.64
2023-11-18T10:20:46.098Z,80.87
2023-11-18T10:23:23.009Z,80.63
2023-11-18T10:25:55.239Z,80.26
2023-11-18T10:28:24.866Z,80.78
2023-11-18T10:30:52.376Z,80.86
2023-11-18T10:33:20.236Z,80.79
2023-11-18T10:36:00.417Z,81.01
2023-11-18T10:38:28.002Z,81.26
2023-11-18T10:40:59.200Z,81.45
2023-11-18T10:43:26.894Z,81.48
2023-11-18T10:46:05.804Z,81.60
2023-11-18T10:48:33.425Z,81.91
2023-11-18T10:51:00.944Z,82.08
2023-11-18T10:53:29.532Z,82.17
2023-11-18T10:55:58.322Z,82.11
2023-11-18T10:58:26.467Z,82.33
2023-11-18T11:01:01.756Z,82.42
2023-11-18T11:03:35.170Z,82.56
2023-11-18T11:06:18.411Z,82.58
2023-11-18T11:08:47.498Z,82.53
2023-11-18T11:11:17.970Z,82.85
2023-11-18T11:13:45.872Z,83.10
2023-11-18T11:16:13.672Z,82.94
2023-11-18T11:18:42.864Z,82.98
2023-11-18T11:21:29.455Z,83.28
2023-11-18T11:23:59.283Z,83.20
2023-11-18T11:26:58.373Z,83.36
2023-11-18T11:29:37.665Z,83.67
2023-11-18T11:32:14.517Z,83.64
2023-11-18T11:34:43.907Z,83.52
2023-11-18T11:37:11.446Z,83.63
2023-11-18T11:39:39.331Z,83.74
2023-11-18T11:42:12.276Z,83.75
2023-11-18T11:44:46.187Z,83.69
2023-11-18T11:47:17.315Z,83.43
2023-11-18T11:50:14.208Z,83.63
2023-11-18T11:52:46.426Z,83.51
2023-11-18T11:55:20.613Z,83.39
2023-11-18T11:57:54.816Z,83.46
2023-11-18T12:00:27.114Z,83.24
2023-11-18T12:02:57.874Z,83.41
2023-11-18T12:05:28.224Z,83.41
2023-11-18T12:07:57.249Z,83.65
2023-11-18T12:10:29.631Z,83.56
2023-11-18T12:13:18.096Z,83.72
2023-11-18T12:15:56.075Z,83.86
2023-11-18T12:18:26.121Z,84.05
2023-11-18T12:20:57.729Z,84.04
2023-11-18T12:23:26.683Z,84.29
2023-11-18T12:25:56.082Z,84.50
2023-11-18T12:28:36.566Z,84.45
2023-11-18T12:31:15.008Z,84.71
2023-11-18T12:33:51.770Z,84.55
2023-11-18T12:36:32.448Z,84.73
2023-11-18T12:39:19.083Z,84.83
2023-11-18T12:41:56.262Z,84.54
2023-11-18T12:44:25.326Z,84.84
2023-11-18T12:46:57.108Z,84.36
2023-11-18T12:49:29.955Z,84.46
2023-11-18T12:51:58.526Z,84.83
2023-11-18T12:54:29.258Z,84.78
2023-11-18T12:56:57.248Z,84.99
2023-11-18T12:59:25.566Z,84.83
2023-11-18T13:01:58.484Z,84.82
2023-11-18T13:04:29.296Z,84.82
2023-11-18T13:06:59.352Z,84.87
2023-11-18T13:09:27.630Z,84.33
2023-11-18T13:12:02.231Z,84.50
2023-11-18T13:14:38.186Z,84.82
2023-11-18T13:17:14.078Z,84.08
2023-11-18T13:19:41.699Z,84.26
2023-11-18T13:22:10.648Z,84.44
2023-11-18T13:24:41.480Z,84.80
2023-11-18T13:27:10.435Z,84.89
2023-11-18T13:29:45.272Z,84.63
2023-11-18T13:32:13.577Z,84.43
2023-11-18T13:34:43.608Z,84.43
2023-11-18T13:37:14.453Z,84.84
2023-11-18T13:39:43.044Z,84.76
2023-11-18T13:42:20.328Z,85.06
2023-11-18T13:44:49.367Z,85.33
2023-11-18T13:47:20.606Z,85.52
2023-11-18T13:49:51.798Z,85.79
2023-11-18T13:52:20.550Z,85.89
2023-11-18T13:54:49.202Z,85.62
2023-11-18T13:57:18.034Z,85.96
2023-11-18T13:59:47.103Z,86.21
2023-11-18T14:02:14.882Z,86.14
2023-11-18T14:04:44.818Z,86.44
2023-11-18T14:07:17.390Z,86.61
2023-11-18T14:09:47.031Z,86.94
2023-11-18T14:12:15.241Z,86.76
2023-11-18T14:14:43.133Z,86.35
2023-11-18T14:17:13.989Z,85.97
2023-11-18T14:19:43.181Z,85.84
2023-11-18T14:22:11.349Z,85.72
2023-11-18T14:24:39.739Z,85.71
2023-11-18T14:27:11.681Z,85.72
2023-11-18T14:29:39.455Z,85.71
2023-11-18T14:32:10.255Z,85.18
2023-11-18T14:34:37.895Z,85.04
2023-11-18T14:37:08.229Z,84.88
2023-11-18T14:39:38.469Z,84.71
2023-11-18T14:42:06.280Z,85.34
2023-11-18T14:44:35.853Z,85.91
2023-11-18T14:47:04.847Z,86.26
2023-11-18T14:49:32.686Z,86.64
2023-11-18T14:52:00.399Z,86.91
2023-11-18T14:54:27.950Z,86.67
2023-11-18T14:56:55.672Z,86.40
2023-11-18T14:59:24.028Z,86.41
2023-11-18T15:01:53.821Z,86.11
2023-11-18T15:04:23.371Z,86.54
2023-11-18T15:06:54.129Z,86.52
2023-11-18T15:09:25.203Z,86.55
2023-11-18T15:11:55.127Z,86.91
2023-11-18T15:14:22.869Z,87.20
2023-11-18T15:16:50.818Z,86.78
2023-11-18T15:19:19.901Z,86.73
2023-11-18T15:21:47.685Z,86.84
2023-11-18T15:24:15.554Z,87.30
2023-11-18T15:26:43.143Z,86.92
2023-11-18T15:29:16.364Z,86.87
2023-11-18T15:31:44.301Z,87.51
2023-11-18T15:34:13.353Z,88.09
2023-11-18T15:36:44.229Z,88.04
2023-11-18T15:39:16.223Z,88.17
2023-11-18T15:41:44.105Z,88.88
2023-11-18T15:44:14.607Z,89.27
2023-11-18T15:46:42.445Z,89.71
2023-11-18T15:49:10.157Z,90.47
2023-11-18T15:51:37.832Z,90.94
2023-11-18T15:54:05.867Z,91.94
2023-11-18T15:56:35.537Z,92.76
2023-11-18T15:59:04.452Z,93.55
2023-11-18T16:01:33.485Z,94.19
2023-11-18T16:04:01.243Z,94.34
2023-11-18T16:06:28.901Z,94.68
2023-11-18T16:08:59.255Z,94.03
2023-11-18T16:11:27.816Z,94.16
2023-11-18T16:13:58.707Z,94.95
2023-11-18T16:16:28.613Z,95.47
2023-11-18T16:18:56.354Z,95.53
2023-11-18T16:21:24.025Z,95.81
2023-11-18T16:23:51.698Z,96.00
2023-11-18T16:26:22.665Z,96.42
2023-11-18T16:28:52.071Z,96.69
2023-11-18T16:31:23.356Z,96.86
2023-11-18T16:33:51.678Z,97.01
2023-11-18T16:36:24.146Z,97.35
2023-11-18T16:38:51.766Z,97.66
2023-11-18T16:41:24.213Z,97.68
2023-11-18T16:43:52.658Z,97.88
2023-11-18T16:46:20.470Z,98.03
2023-11-18T16:48:48.253Z,97.89
2023-11-18T16:51:15.869Z,97.81
2023-11-18T16:53:43.450Z,97.85
2023-11-18T16:56:11.318Z,98.99
2023-11-18T16:58:40.493Z,99.27
2023-11-18T17:01:10.550Z,99.56
2023-11-18T17:03:40.596Z,99.81
2023-11-18T17:06:09.237Z,99.98
2023-11-18T17:08:37.400Z,99.98
2023-11-18T17:11:05.570Z,99.96
2023-11-18T17:13:34.601Z,100.00
2023-11-18T17:16:02.400Z,100.00
2023-11-18T17:18:30.998Z,100.00
2023-11-18T17:21:01.688Z,100.00
2023-11-18T17:23:29.417Z,100.00
2023-11-18T17:25:59.783Z,100.00
2023-11-18T17:28:27.470Z,100.00
2023-11-18T17:30:55.350Z,100.00
2023-11-18T17:33:23.164Z,100.00
2023-11-18T17:35:50.731Z,100.00
2023-11-18T17:38:18.442Z,100.00
2023-11-18T17:40:47.592Z,100.00
2023-11-18T17:43:15.255Z,100.00
2023-11-18T17:45:44.068Z,100.00
2023-11-18T17:48:11.814Z,100.00
2023-11-18T17:50:39.806Z,100.00
2023-11-18T17:53:07.620Z,100.00
2023-11-18T17:55:36.406Z,100.00
2023-11-18T17:58:05.326Z,100.00
2023-11-18T18:00:33.177Z,100.00
2023-11-18T18:03:00.738Z,100.00
2023-11-18T18:05:29.956Z,100.00
2023-11-18T18:07:58.197Z,100.00
2023-11-18T18:10:31.160Z,100.00
2023-11-18T18:12:58.908Z,100.00
2023-11-18T18:15:28.150Z,100.00
2023-11-18T18:17:56.444Z,100.00
2023-11-18T18:20:24.608Z,100.00
2023-11-18T18:22:55.130Z,100.00
2023-11-18T18:25:22.857Z,100.00
2023-11-18T18:27:51.617Z,100.00
2023-11-18T18:30:19.612Z,100.00
2023-11-18T18:32:51.589Z,100.00
2023-11-18T18:35:20.544Z,100.00
2023-11-18T18:37:51.518Z,100.00
2023-11-18T18:40:24.714Z,100.00
2023-11-18T18:42:52.577Z,100.00
2023-11-18T18:45:20.449Z,100.00
2023-11-18T18:47:48.691Z,100.00
2023-11-18T18:50:16.974Z,100.00
2023-11-18T18:52:45.650Z,100.00
2023-11-18T18:55:13.484Z,100.00
2023-11-18T18:57:41.193Z,100.00
2023-11-18T19:00:13.592Z,100.00
2023-11-18T19:02:44.365Z,100.00
2023-11-18T19:05:14.839Z,100.00
2023-11-18T19:07:42.668Z,100.00
2023-11-18T19:10:10.501Z,100.00
2023-11-18T19:12:38.528Z,100.00
2023-11-18T19:15:06.766Z,100.00
2023-11-18T19:17:36.353Z,100.00
2023-11-18T19:20:07.845Z,100.00
2023-11-18T19:22:35.561Z,100.00
2023-11-18T19:25:03.415Z,100.00
2023-11-18T19:27:32.255Z,100.00
2023-11-18T19:30:00.518Z,100.00
2023-11-18T19:32:29.693Z,100.00
2023-11-18T19:34:58.534Z,100.00
2023-11-18T19:37:26.232Z,100.00
2023-11-18T19:39:54.149Z,100.00
2023-11-18T19:42:23.473Z,100.00
2023-11-18T19:44:54.948Z,100.00
2023-11-18T19:47:22.587Z,100.00
2023-11-18T19:49:50.270Z,100.00
2023-11-18T19:52:18.906Z,100.00
2023-11-18T19:54:46.484Z,100.00
2023-11-18T19:57:14.115Z,100.00
2023-11-18T19:59:41.944Z,100.00
2023-11-18T20:02:11.027Z,100.00
2023-11-18T20:04:43.255Z,100.00
2023-11-18T20:07:11.012Z,100.00
2023-11-18T20:09:38.684Z,100.00
2023-11-18T20:12:09.806Z,100.00
2023-11-18T20:14:38.843Z,100.00
2023-11-18T20:17:06.653Z,100.00
2023-11-18T20:19:37.234Z,100.00
2023-11-18T20:22:05.874Z,100.00
2023-11-18T20:24:33.483Z,100.00
2023-11-18T20:27:01.619Z,100.00
2023-11-18T20:29:30.720Z,100.00
2023-11-18T20:32:02.081Z,100.00
2023-11-18T20:34:32.807Z,100.00
2023-11-18T20:37:00.498Z,100.00
2023-11-18T20:39:28.208Z,100.00
2023-11-18T20:41:55.978Z,100.00
2023-11-18T20:44:24.680Z,100.00
2023-11-18T20:46:54.420Z,100.00
2023-11-18T20:49:22.427Z,100.00
2023-11-18T20:51:53.042Z,100.00
2023-11-18T20:54:20.979Z,100.00
2023-11-18T20:56:48.703Z,100.00
2023-11-18T20:59:19.586Z,100.00
2023-11-18T21:01:48.252Z,100.00
2023-11-18T21:04:16.993Z,100.00
2023-11-18T21:06:44.779Z,100.00
2023-11-18T21:09:12.229Z,100.00
2023-11-18T21:11:39.943Z,100.00
2023-11-18T21:14:07.683Z,100.00
2023-11-18T21:16:37.545Z,100.00
2023-11-18T21:19:07.700Z,100.00
2023-11-18T21:21:35.145Z,100.00
2023-11-18T21:24:04.576Z,100.00
2023-11-18T21:26:32.362Z,100.00
2023-11-18T21:29:00.007Z,100.00
2023-11-18T21:31:27.538Z,100.00
2023-11-18T21:33:55.306Z,100.00
2023-11-18T21:36:23.175Z,100.00
2023-11-18T21:41:21.624Z,100.00
2023-11-18T21:43:49.137Z,100.00
2023-11-18T21:46:16.753Z,100.00
2023-11-18T21:48:44.507Z,100.00
2023-11-18T21:51:12.224Z,100.00
2023-11-18T21:53:41.768Z,100.00
2023-11-18T21:56:09.700Z,100.00
2023-11-18T21:58:38.410Z,100.00
2023-11-18T22:01:07.012Z,100.00
2023-11-18T22:03:35.631Z,100.00
2023-11-18T22:06:03.385Z,100.00
2023-11-18T22:08:31.080Z,100.00
2023-11-18T22:10:59.541Z,100.00
2023-11-18T22:13:31.118Z,100.00
2023-11-18T22:15:59.188Z,100.00
2023-11-18T22:18:27.850Z,100.00
2023-11-18T22:20:56.694Z,100.00
2023-11-18T22:23:24.474Z,100.00
2023-11-18T22:25:52.249Z,100.00
2023-11-18T22:28:20.308Z,100.00
2023-11-18T22:30:49.160Z,100.00
2023-11-18T22:33:25.364Z,100.00
2023-11-18T22:35:55.234Z,100.00
2023-11-18T22:38:23.324Z,100.00
2023-11-18T22:40:51.002Z,100.00
2023-11-18T22:43:21.017Z,100.00
2023-11-18T22:45:52.085Z,99.96
2023-11-18T22:48:21.206Z,99.67
2023-11-18T22:50:48.876Z,99.20
2023-11-18T22:53:18.486Z,98.54
2023-11-18T22:55:46.533Z,98.53
2023-11-18T23:26:32.501Z,98.16
2023-11-18T23:29:00.092Z,97.94
2023-11-18T23:31:29.612Z,97.46
2023-11-18T23:34:01.686Z,97.38
2023-11-18T23:41:05.638Z,97.31
2023-11-18T23:43:36.127Z,96.94
2023-11-18T23:46:06.911Z,96.65
2023-11-18T23:48:35.048Z,96.88
2023-11-18T23:51:02.625Z,97.13
2023-11-18T23:53:30.125Z,96.97
2023-11-18T23:55:57.664Z,96.72
2023-11-18T23:58:25.951Z,96.99
